sensor_id;sensor_type;location;lat;lon;timestamp;P1;durP1;ratioP1;P2;durP2;ratioP2
7375;SDS011;3728;42.266;24.944;2024-01-16T00:01:00;52.43;;;31.63;;
7375;SDS011;3728;42.266;24.944;2024-01-16T00:03:27;48.00;;;29.73;;
7375;SDS011;3728;42.266;24.944;2024-01-16T00:05:54;69.00;;;37.00;;
7375;SDS011;3728;42.266;24.944;2024-01-16T00:08:22;100.43;;;45.90;;
7375;SDS011;3728;42.266;24.944;2024-01-16T00:10:49;101.27;;;45.73;;
7375;SDS011;3728;42.266;24.944;2024-01-16T00:13:17;115.83;;;45.97;;
7375;SDS011;3728;42.266;24.944;2024-01-16T00:15:44;51.87;;;29.37;;
7375;SDS011;3728;42.266;24.944;2024-01-16T00:18:11;45.10;;;25.97;;
7375;SDS011;3728;42.266;24.944;2024-01-16T00:20:38;40.23;;;25.30;;
7375;SDS011;3728;42.266;24.944;2024-01-16T00:23:05;38.57;;;24.30;;
7375;SDS011;3728;42.266;24.944;2024-01-16T00:25:32;36.63;;;24.73;;
7375;SDS011;3728;42.266;24.944;2024-01-16T00:27:59;37.80;;;23.23;;
7375;SDS011;3728;42.266;24.944;2024-01-16T00:30:28;39.70;;;24.83;;
7375;SDS011;3728;42.266;24.944;2024-01-16T00:32:56;38.07;;;25.40;;
7375;SDS011;3728;42.266;24.944;2024-01-16T00:35:23;43.70;;;27.10;;
7375;SDS011;3728;42.266;24.944;2024-01-16T00:37:50;46.00;;;28.13;;
7375;SDS011;3728;42.266;24.944;2024-01-16T00:40:17;37.80;;;25.03;;
7375;SDS011;3728;42.266;24.944;2024-01-16T00:42:44;42.93;;;25.27;;
7375;SDS011;3728;42.266;24.944;2024-01-16T00:45:11;48.13;;;27.37;;
7375;SDS011;3728;42.266;24.944;2024-01-16T00:47:38;46.70;;;27.67;;
7375;SDS011;3728;42.266;24.944;2024-01-16T00:50:05;46.03;;;30.33;;
7375;SDS011;3728;42.266;24.944;2024-01-16T00:52:32;42.80;;;27.87;;
7375;SDS011;3728;42.266;24.944;2024-01-16T00:54:59;48.73;;;30.07;;
7375;SDS011;3728;42.266;24.944;2024-01-16T00:57:26;47.97;;;31.07;;
7375;SDS011;3728;42.266;24.944;2024-01-16T00:59:53;45.33;;;29.90;;
7375;SDS011;3728;42.266;24.944;2024-01-16T01:02:20;43.93;;;29.00;;
7375;SDS011;3728;42.266;24.944;2024-01-16T01:04:47;45.47;;;30.13;;
7375;SDS011;3728;42.266;24.944;2024-01-16T01:07:14;46.40;;;32.37;;
7375;SDS011;3728;42.266;24.944;2024-01-16T01:09:42;47.23;;;31.33;;
7375;SDS011;3728;42.266;24.944;2024-01-16T01:12:08;51.10;;;31.87;;
7375;SDS011;3728;42.266;24.944;2024-01-16T01:14:36;46.13;;;30.53;;
7375;SDS011;3728;42.266;24.944;2024-01-16T01:17:03;43.83;;;30.57;;
7375;SDS011;3728;42.266;24.944;2024-01-16T01:19:31;39.63;;;26.43;;
7375;SDS011;3728;42.266;24.944;2024-01-16T01:21:58;41.43;;;26.57;;
7375;SDS011;3728;42.266;24.944;2024-01-16T01:24:25;39.87;;;26.90;;
7375;SDS011;3728;42.266;24.944;2024-01-16T01:26:52;42.50;;;27.27;;
7375;SDS011;3728;42.266;24.944;2024-01-16T01:29:19;38.67;;;26.50;;
7375;SDS011;3728;42.266;24.944;2024-01-16T01:31:46;42.40;;;27.63;;
7375;SDS011;3728;42.266;24.944;2024-01-16T01:34:14;43.57;;;27.83;;
7375;SDS011;3728;42.266;24.944;2024-01-16T01:36:42;54.03;;;30.80;;
7375;SDS011;3728;42.266;24.944;2024-01-16T01:39:10;49.10;;;30.73;;
7375;SDS011;3728;42.266;24.944;2024-01-16T01:41:38;47.10;;;28.40;;
7375;SDS011;3728;42.266;24.944;2024-01-16T01:44:06;44.77;;;27.67;;
7375;SDS011;3728;42.266;24.944;2024-01-16T01:46:33;44.67;;;27.37;;
7375;SDS011;3728;42.266;24.944;2024-01-16T01:49:01;46.13;;;27.73;;
7375;SDS011;3728;42.266;24.944;2024-01-16T01:51:30;41.73;;;26.27;;
7375;SDS011;3728;42.266;24.944;2024-01-16T01:53:57;36.30;;;24.13;;
7375;SDS011;3728;42.266;24.944;2024-01-16T01:56:25;39.17;;;24.63;;
7375;SDS011;3728;42.266;24.944;2024-01-16T01:58:54;39.73;;;25.37;;
7375;SDS011;3728;42.266;24.944;2024-01-16T02:01:23;41.30;;;25.53;;
7375;SDS011;3728;42.266;24.944;2024-01-16T02:03:52;36.30;;;23.83;;
7375;SDS011;3728;42.266;24.944;2024-01-16T02:06:21;36.47;;;22.57;;
7375;SDS011;3728;42.266;24.944;2024-01-16T02:08:48;33.10;;;21.37;;
7375;SDS011;3728;42.266;24.944;2024-01-16T02:11:15;37.63;;;24.03;;
7375;SDS011;3728;42.266;24.944;2024-01-16T02:13:42;51.40;;;31.60;;
7375;SDS011;3728;42.266;24.944;2024-01-16T02:16:22;39.97;;;25.00;;
7375;SDS011;3728;42.266;24.944;2024-01-16T02:18:50;47.27;;;25.23;;
7375;SDS011;3728;42.266;24.944;2024-01-16T02:21:22;46.63;;;26.10;;
7375;SDS011;3728;42.266;24.944;2024-01-16T02:23:52;42.43;;;26.97;;
7375;SDS011;3728;42.266;24.944;2024-01-16T02:26:20;38.83;;;27.10;;
7375;SDS011;3728;42.266;24.944;2024-01-16T02:28:47;39.37;;;26.17;;
7375;SDS011;3728;42.266;24.944;2024-01-16T02:31:14;40.57;;;27.40;;
7375;SDS011;3728;42.266;24.944;2024-01-16T02:33:41;43.43;;;25.87;;
7375;SDS011;3728;42.266;24.944;2024-01-16T02:36:08;42.23;;;27.73;;
7375;SDS011;3728;42.266;24.944;2024-01-16T02:38:35;45.37;;;26.57;;
7375;SDS011;3728;42.266;24.944;2024-01-16T02:41:03;42.60;;;27.43;;
7375;SDS011;3728;42.266;24.944;2024-01-16T02:43:30;46.40;;;28.83;;
7375;SDS011;3728;42.266;24.944;2024-01-16T02:45:57;45.27;;;26.47;;
7375;SDS011;3728;42.266;24.944;2024-01-16T02:48:24;44.23;;;25.90;;
7375;SDS011;3728;42.266;24.944;2024-01-16T02:50:52;39.53;;;25.00;;
7375;SDS011;3728;42.266;24.944;2024-01-16T02:53:19;45.40;;;27.00;;
7375;SDS011;3728;42.266;24.944;2024-01-16T02:55:46;38.47;;;24.67;;
7375;SDS011;3728;42.266;24.944;2024-01-16T02:58:13;40.17;;;24.40;;
7375;SDS011;3728;42.266;24.944;2024-01-16T03:00:39;34.77;;;21.80;;
7375;SDS011;3728;42.266;24.944;2024-01-16T03:03:06;32.93;;;22.20;;
7375;SDS011;3728;42.266;24.944;2024-01-16T03:05:34;32.23;;;21.73;;
7375;SDS011;3728;42.266;24.944;2024-01-16T03:08:02;41.60;;;23.27;;
7375;SDS011;3728;42.266;24.944;2024-01-16T03:10:29;43.17;;;25.33;;
7375;SDS011;3728;42.266;24.944;2024-01-16T03:12:56;39.60;;;25.37;;
7375;SDS011;3728;42.266;24.944;2024-01-16T03:15:23;38.73;;;24.67;;
7375;SDS011;3728;42.266;24.944;2024-01-16T03:17:51;47.33;;;28.80;;
7375;SDS011;3728;42.266;24.944;2024-01-16T03:20:18;48.03;;;30.33;;
7375;SDS011;3728;42.266;24.944;2024-01-16T03:22:45;39.80;;;24.90;;
7375;SDS011;3728;42.266;24.944;2024-01-16T03:25:12;42.30;;;25.73;;
7375;SDS011;3728;42.266;24.944;2024-01-16T03:27:39;43.93;;;26.30;;
7375;SDS011;3728;42.266;24.944;2024-01-16T03:30:06;47.30;;;33.73;;
7375;SDS011;3728;42.266;24.944;2024-01-16T03:32:35;85.60;;;61.00;;
7375;SDS011;3728;42.266;24.944;2024-01-16T03:35:03;92.97;;;63.87;;
7375;SDS011;3728;42.266;24.944;2024-01-16T03:37:31;43.33;;;26.53;;
7375;SDS011;3728;42.266;24.944;2024-01-16T03:39:59;50.60;;;30.97;;
7375;SDS011;3728;42.266;24.944;2024-01-16T03:42:26;48.47;;;28.73;;
7375;SDS011;3728;42.266;24.944;2024-01-16T03:44:53;48.33;;;30.20;;
7375;SDS011;3728;42.266;24.944;2024-01-16T03:47:21;40.77;;;26.57;;
7375;SDS011;3728;42.266;24.944;2024-01-16T03:49:49;44.43;;;29.23;;
7375;SDS011;3728;42.266;24.944;2024-01-16T03:52:15;41.73;;;26.93;;
7375;SDS011;3728;42.266;24.944;2024-01-16T03:54:42;51.97;;;29.77;;
7375;SDS011;3728;42.266;24.944;2024-01-16T03:57:09;76.33;;;42.77;;
7375;SDS011;3728;42.266;24.944;2024-01-16T03:59:37;58.17;;;33.10;;
7375;SDS011;3728;42.266;24.944;2024-01-16T04:02:04;41.80;;;26.17;;
7375;SDS011;3728;42.266;24.944;2024-01-16T04:04:31;44.80;;;28.83;;
7375;SDS011;3728;42.266;24.944;2024-01-16T04:06:58;48.73;;;34.00;;
7375;SDS011;3728;42.266;24.944;2024-01-16T04:09:25;53.10;;;37.53;;
7375;SDS011;3728;42.266;24.944;2024-01-16T04:11:52;41.87;;;29.63;;
7375;SDS011;3728;42.266;24.944;2024-01-16T04:14:19;37.13;;;26.57;;
7375;SDS011;3728;42.266;24.944;2024-01-16T04:16:47;41.63;;;27.10;;
7375;SDS011;3728;42.266;24.944;2024-01-16T04:19:14;34.37;;;24.93;;
7375;SDS011;3728;42.266;24.944;2024-01-16T04:21:41;38.97;;;25.13;;
7375;SDS011;3728;42.266;24.944;2024-01-16T04:24:08;42.40;;;27.83;;
7375;SDS011;3728;42.266;24.944;2024-01-16T04:26:35;47.10;;;28.27;;
7375;SDS011;3728;42.266;24.944;2024-01-16T04:29:04;42.30;;;28.33;;
7375;SDS011;3728;42.266;24.944;2024-01-16T04:31:32;43.33;;;27.07;;
7375;SDS011;3728;42.266;24.944;2024-01-16T04:34:05;39.47;;;26.20;;
7375;SDS011;3728;42.266;24.944;2024-01-16T04:36:32;41.07;;;26.50;;
7375;SDS011;3728;42.266;24.944;2024-01-16T04:38:59;39.17;;;24.70;;
7375;SDS011;3728;42.266;24.944;2024-01-16T04:41:26;36.57;;;25.10;;
7375;SDS011;3728;42.266;24.944;2024-01-16T04:43:54;37.33;;;25.97;;
7375;SDS011;3728;42.266;24.944;2024-01-16T04:46:20;39.03;;;26.00;;
7375;SDS011;3728;42.266;24.944;2024-01-16T04:48:48;43.00;;;26.30;;
7375;SDS011;3728;42.266;24.944;2024-01-16T04:51:15;36.57;;;25.83;;
7375;SDS011;3728;42.266;24.944;2024-01-16T04:53:42;44.70;;;27.97;;
7375;SDS011;3728;42.266;24.944;2024-01-16T04:56:09;42.90;;;28.00;;
7375;SDS011;3728;42.266;24.944;2024-01-16T04:58:36;46.67;;;30.27;;
7375;SDS011;3728;42.266;24.944;2024-01-16T05:01:03;45.30;;;28.30;;
7375;SDS011;3728;42.266;24.944;2024-01-16T05:03:29;42.40;;;27.47;;
7375;SDS011;3728;42.266;24.944;2024-01-16T05:05:56;52.50;;;29.33;;
7375;SDS011;3728;42.266;24.944;2024-01-16T05:08:24;50.00;;;28.30;;
7375;SDS011;3728;42.266;24.944;2024-01-16T05:10:51;45.07;;;28.50;;
7375;SDS011;3728;42.266;24.944;2024-01-16T05:13:18;52.47;;;32.83;;
7375;SDS011;3728;42.266;24.944;2024-01-16T05:15:45;48.47;;;30.80;;
7375;SDS011;3728;42.266;24.944;2024-01-16T05:18:12;58.27;;;31.77;;
7375;SDS011;3728;42.266;24.944;2024-01-16T05:20:41;54.77;;;29.00;;
7375;SDS011;3728;42.266;24.944;2024-01-16T05:23:08;46.80;;;28.23;;
7375;SDS011;3728;42.266;24.944;2024-01-16T05:25:35;53.03;;;29.57;;
7375;SDS011;3728;42.266;24.944;2024-01-16T05:28:02;48.77;;;29.13;;
7375;SDS011;3728;42.266;24.944;2024-01-16T05:30:29;62.23;;;32.00;;
7375;SDS011;3728;42.266;24.944;2024-01-16T05:32:56;66.73;;;34.50;;
7375;SDS011;3728;42.266;24.944;2024-01-16T05:35:27;62.77;;;35.57;;
7375;SDS011;3728;42.266;24.944;2024-01-16T05:37:54;54.40;;;31.33;;
7375;SDS011;3728;42.266;24.944;2024-01-16T05:40:26;50.77;;;29.07;;
7375;SDS011;3728;42.266;24.944;2024-01-16T05:42:52;76.30;;;46.10;;
7375;SDS011;3728;42.266;24.944;2024-01-16T05:45:20;77.33;;;44.07;;
7375;SDS011;3728;42.266;24.944;2024-01-16T05:47:47;83.73;;;46.87;;
7375;SDS011;3728;42.266;24.944;2024-01-16T05:50:14;82.77;;;43.67;;
7375;SDS011;3728;42.266;24.944;2024-01-16T05:52:45;73.97;;;43.23;;
7375;SDS011;3728;42.266;24.944;2024-01-16T05:55:12;72.20;;;42.23;;
7375;SDS011;3728;42.266;24.944;2024-01-16T05:57:39;87.37;;;44.30;;
7375;SDS011;3728;42.266;24.944;2024-01-16T06:00:07;78.90;;;44.37;;
7375;SDS011;3728;42.266;24.944;2024-01-16T06:02:34;82.80;;;45.73;;
7375;SDS011;3728;42.266;24.944;2024-01-16T06:05:03;83.20;;;46.97;;
7375;SDS011;3728;42.266;24.944;2024-01-16T06:07:30;90.57;;;48.37;;
7375;SDS011;3728;42.266;24.944;2024-01-16T06:09:57;104.33;;;49.10;;
7375;SDS011;3728;42.266;24.944;2024-01-16T06:12:24;98.33;;;48.00;;
7375;SDS011;3728;42.266;24.944;2024-01-16T06:14:51;126.73;;;56.73;;
7375;SDS011;3728;42.266;24.944;2024-01-16T06:17:18;128.87;;;59.80;;
7375;SDS011;3728;42.266;24.944;2024-01-16T06:19:45;113.90;;;55.83;;
7375;SDS011;3728;42.266;24.944;2024-01-16T06:22:13;131.47;;;67.30;;
7375;SDS011;3728;42.266;24.944;2024-01-16T06:24:40;127.90;;;65.23;;
7375;SDS011;3728;42.266;24.944;2024-01-16T06:27:07;118.30;;;63.50;;
7375;SDS011;3728;42.266;24.944;2024-01-16T06:29:34;87.50;;;48.30;;
7375;SDS011;3728;42.266;24.944;2024-01-16T06:32:02;65.90;;;38.97;;
7375;SDS011;3728;42.266;24.944;2024-01-16T06:34:29;73.23;;;40.83;;
7375;SDS011;3728;42.266;24.944;2024-01-16T06:36:56;78.63;;;41.30;;
7375;SDS011;3728;42.266;24.944;2024-01-16T06:39:24;82.43;;;48.77;;
7375;SDS011;3728;42.266;24.944;2024-01-16T06:41:51;89.63;;;51.97;;
7375;SDS011;3728;42.266;24.944;2024-01-16T06:44:20;103.17;;;56.63;;
7375;SDS011;3728;42.266;24.944;2024-01-16T06:46:49;130.20;;;65.10;;
7375;SDS011;3728;42.266;24.944;2024-01-16T06:49:16;112.80;;;62.03;;
7375;SDS011;3728;42.266;24.944;2024-01-16T06:51:44;104.70;;;56.70;;
7375;SDS011;3728;42.266;24.944;2024-01-16T06:54:11;95.30;;;53.90;;
7375;SDS011;3728;42.266;24.944;2024-01-16T06:56:38;104.00;;;53.63;;
7375;SDS011;3728;42.266;24.944;2024-01-16T06:59:05;100.23;;;56.27;;
7375;SDS011;3728;42.266;24.944;2024-01-16T07:01:37;104.07;;;59.17;;
7375;SDS011;3728;42.266;24.944;2024-01-16T07:04:05;70.67;;;42.27;;
7375;SDS011;3728;42.266;24.944;2024-01-16T07:06:32;95.83;;;54.10;;
7375;SDS011;3728;42.266;24.944;2024-01-16T07:08:59;77.97;;;47.90;;
7375;SDS011;3728;42.266;24.944;2024-01-16T07:11:26;75.77;;;49.37;;
7375;SDS011;3728;42.266;24.944;2024-01-16T07:13:53;76.87;;;46.97;;
7375;SDS011;3728;42.266;24.944;2024-01-16T07:16:20;69.13;;;41.00;;
7375;SDS011;3728;42.266;24.944;2024-01-16T07:18:49;62.90;;;35.83;;
7375;SDS011;3728;42.266;24.944;2024-01-16T07:21:18;61.27;;;33.77;;
7375;SDS011;3728;42.266;24.944;2024-01-16T07:23:45;57.43;;;35.40;;
7375;SDS011;3728;42.266;24.944;2024-01-16T07:26:12;55.03;;;34.97;;
7375;SDS011;3728;42.266;24.944;2024-01-16T07:28:40;62.33;;;37.50;;
7375;SDS011;3728;42.266;24.944;2024-01-16T07:31:07;54.13;;;31.33;;
7375;SDS011;3728;42.266;24.944;2024-01-16T07:33:36;53.63;;;34.57;;
7375;SDS011;3728;42.266;24.944;2024-01-16T07:36:04;66.50;;;38.17;;
7375;SDS011;3728;42.266;24.944;2024-01-16T07:38:32;63.37;;;35.47;;
7375;SDS011;3728;42.266;24.944;2024-01-16T07:41:04;49.07;;;28.73;;
7375;SDS011;3728;42.266;24.944;2024-01-16T07:43:32;30.77;;;18.83;;
7375;SDS011;3728;42.266;24.944;2024-01-16T07:45:59;24.47;;;17.10;;
7375;SDS011;3728;42.266;24.944;2024-01-16T07:48:26;29.40;;;18.10;;
7375;SDS011;3728;42.266;24.944;2024-01-16T07:50:54;44.63;;;23.43;;
7375;SDS011;3728;42.266;24.944;2024-01-16T07:53:21;33.23;;;21.27;;
7375;SDS011;3728;42.266;24.944;2024-01-16T07:55:48;28.57;;;20.47;;
7375;SDS011;3728;42.266;24.944;2024-01-16T07:58:15;25.33;;;18.40;;
7375;SDS011;3728;42.266;24.944;2024-01-16T08:00:42;28.23;;;19.53;;
7375;SDS011;3728;42.266;24.944;2024-01-16T08:03:11;31.37;;;22.37;;
7375;SDS011;3728;42.266;24.944;2024-01-16T08:05:39;36.17;;;21.57;;
7375;SDS011;3728;42.266;24.944;2024-01-16T08:08:08;33.67;;;23.13;;
7375;SDS011;3728;42.266;24.944;2024-01-16T08:10:37;31.47;;;24.13;;
7375;SDS011;3728;42.266;24.944;2024-01-16T08:13:04;40.93;;;28.53;;
7375;SDS011;3728;42.266;24.944;2024-01-16T08:15:31;23.67;;;17.20;;
7375;SDS011;3728;42.266;24.944;2024-01-16T08:17:59;27.00;;;17.00;;
7375;SDS011;3728;42.266;24.944;2024-01-16T08:20:26;24.43;;;15.90;;
7375;SDS011;3728;42.266;24.944;2024-01-16T08:22:53;20.70;;;14.17;;
7375;SDS011;3728;42.266;24.944;2024-01-16T08:25:21;19.80;;;13.27;;
7375;SDS011;3728;42.266;24.944;2024-01-16T08:27:48;17.57;;;13.13;;
7375;SDS011;3728;42.266;24.944;2024-01-16T08:30:16;17.70;;;11.87;;
7375;SDS011;3728;42.266;24.944;2024-01-16T08:32:43;23.27;;;13.43;;
7375;SDS011;3728;42.266;24.944;2024-01-16T08:35:11;15.20;;;10.83;;
7375;SDS011;3728;42.266;24.944;2024-01-16T08:37:38;13.67;;;9.50;;
7375;SDS011;3728;42.266;24.944;2024-01-16T08:40:06;9.30;;;7.27;;
7375;SDS011;3728;42.266;24.944;2024-01-16T08:42:33;6.87;;;5.33;;
7375;SDS011;3728;42.266;24.944;2024-01-16T08:45:00;7.97;;;5.60;;
7375;SDS011;3728;42.266;24.944;2024-01-16T08:47:28;8.70;;;6.23;;
7375;SDS011;3728;42.266;24.944;2024-01-16T08:49:55;9.90;;;7.13;;
7375;SDS011;3728;42.266;24.944;2024-01-16T08:52:22;11.80;;;7.50;;
7375;SDS011;3728;42.266;24.944;2024-01-16T08:54:49;8.67;;;5.93;;
7375;SDS011;3728;42.266;24.944;2024-01-16T08:57:16;10.13;;;6.57;;
7375;SDS011;3728;42.266;24.944;2024-01-16T08:59:44;10.17;;;6.40;;
7375;SDS011;3728;42.266;24.944;2024-01-16T09:02:11;4.70;;;3.93;;
7375;SDS011;3728;42.266;24.944;2024-01-16T09:04:39;6.10;;;4.60;;
7375;SDS011;3728;42.266;24.944;2024-01-16T09:07:10;4.50;;;3.93;;
7375;SDS011;3728;42.266;24.944;2024-01-16T09:09:42;4.17;;;3.73;;
7375;SDS011;3728;42.266;24.944;2024-01-16T09:12:10;4.83;;;4.30;;
7375;SDS011;3728;42.266;24.944;2024-01-16T09:14:37;6.13;;;4.33;;
7375;SDS011;3728;42.266;24.944;2024-01-16T09:17:05;5.67;;;4.00;;
7375;SDS011;3728;42.266;24.944;2024-01-16T09:19:32;7.67;;;4.40;;
7375;SDS011;3728;42.266;24.944;2024-01-16T09:22:03;10.40;;;5.50;;
7375;SDS011;3728;42.266;24.944;2024-01-16T09:24:31;8.57;;;5.87;;
7375;SDS011;3728;42.266;24.944;2024-01-16T09:26:59;9.23;;;6.03;;
7375;SDS011;3728;42.266;24.944;2024-01-16T09:29:26;17.10;;;9.67;;
7375;SDS011;3728;42.266;24.944;2024-01-16T09:31:54;7.70;;;5.23;;
7375;SDS011;3728;42.266;24.944;2024-01-16T09:34:22;7.63;;;5.57;;
7375;SDS011;3728;42.266;24.944;2024-01-16T09:36:50;8.67;;;5.63;;
7375;SDS011;3728;42.266;24.944;2024-01-16T09:39:17;6.63;;;3.90;;
7375;SDS011;3728;42.266;24.944;2024-01-16T09:41:45;6.50;;;4.63;;
7375;SDS011;3728;42.266;24.944;2024-01-16T09:44:13;4.50;;;3.73;;
7375;SDS011;3728;42.266;24.944;2024-01-16T09:46:42;4.93;;;3.87;;
7375;SDS011;3728;42.266;24.944;2024-01-16T09:49:14;4.50;;;3.40;;
7375;SDS011;3728;42.266;24.944;2024-01-16T09:51:43;4.63;;;3.70;;
7375;SDS011;3728;42.266;24.944;2024-01-16T09:54:11;12.70;;;5.20;;
7375;SDS011;3728;42.266;24.944;2024-01-16T09:56:41;13.07;;;6.27;;
7375;SDS011;3728;42.266;24.944;2024-01-16T09:59:10;4.87;;;3.00;;
7375;SDS011;3728;42.266;24.944;2024-01-16T10:01:43;4.50;;;3.20;;
7375;SDS011;3728;42.266;24.944;2024-01-16T10:04:11;7.20;;;2.60;;
7375;SDS011;3728;42.266;24.944;2024-01-16T10:06:40;5.33;;;2.10;;
7375;SDS011;3728;42.266;24.944;2024-01-16T10:09:14;3.40;;;1.97;;
7375;SDS011;3728;42.266;24.944;2024-01-16T10:11:44;4.13;;;2.27;;
7375;SDS011;3728;42.266;24.944;2024-01-16T10:14:13;1.90;;;1.80;;
7375;SDS011;3728;42.266;24.944;2024-01-16T10:19:32;4.13;;;2.70;;
7375;SDS011;3728;42.266;24.944;2024-01-16T10:22:19;1.90;;;1.67;;
7375;SDS011;3728;42.266;24.944;2024-01-16T10:27:40;5.67;;;2.93;;
7375;SDS011;3728;42.266;24.944;2024-01-16T10:30:07;4.57;;;2.40;;
7375;SDS011;3728;42.266;24.944;2024-01-16T10:32:43;3.77;;;2.60;;
7375;SDS011;3728;42.266;24.944;2024-01-16T10:35:12;4.90;;;2.27;;
7375;SDS011;3728;42.266;24.944;2024-01-16T10:37:50;3.33;;;2.57;;
7375;SDS011;3728;42.266;24.944;2024-01-16T10:40:24;3.57;;;2.83;;
7375;SDS011;3728;42.266;24.944;2024-01-16T10:43:04;8.60;;;3.80;;
7375;SDS011;3728;42.266;24.944;2024-01-16T10:45:32;6.77;;;2.30;;
7375;SDS011;3728;42.266;24.944;2024-01-16T10:48:01;3.10;;;2.27;;
7375;SDS011;3728;42.266;24.944;2024-01-16T10:50:34;2.13;;;1.93;;
7375;SDS011;3728;42.266;24.944;2024-01-16T10:53:05;4.30;;;2.10;;
7375;SDS011;3728;42.266;24.944;2024-01-16T10:55:54;3.20;;;1.67;;
7375;SDS011;3728;42.266;24.944;2024-01-16T10:58:24;4.97;;;2.10;;
7375;SDS011;3728;42.266;24.944;2024-01-16T11:01:03;4.43;;;2.50;;
7375;SDS011;3728;42.266;24.944;2024-01-16T11:03:49;3.73;;;1.93;;
7375;SDS011;3728;42.266;24.944;2024-01-16T11:06:21;8.17;;;2.57;;
7375;SDS011;3728;42.266;24.944;2024-01-16T11:08:50;5.10;;;2.10;;
7375;SDS011;3728;42.266;24.944;2024-01-16T11:11:19;8.80;;;3.17;;
7375;SDS011;3728;42.266;24.944;2024-01-16T11:13:47;4.53;;;2.20;;
7375;SDS011;3728;42.266;24.944;2024-01-16T11:16:16;1.70;;;1.60;;
7375;SDS011;3728;42.266;24.944;2024-01-16T11:18:45;5.50;;;3.00;;
7375;SDS011;3728;42.266;24.944;2024-01-16T11:21:14;5.07;;;2.00;;
7375;SDS011;3728;42.266;24.944;2024-01-16T11:23:45;5.83;;;2.13;;
7375;SDS011;3728;42.266;24.944;2024-01-16T11:26:33;3.27;;;2.17;;
7375;SDS011;3728;42.266;24.944;2024-01-16T11:31:55;2.20;;;2.00;;
7375;SDS011;3728;42.266;24.944;2024-01-16T11:37:11;4.10;;;2.90;;
7375;SDS011;3728;42.266;24.944;2024-01-16T11:39:39;4.63;;;3.20;;
7375;SDS011;3728;42.266;24.944;2024-01-16T11:42:09;3.63;;;1.57;;
7375;SDS011;3728;42.266;24.944;2024-01-16T11:44:48;3.77;;;2.10;;
7375;SDS011;3728;42.266;24.944;2024-01-16T11:47:23;7.40;;;1.70;;
7375;SDS011;3728;42.266;24.944;2024-01-16T11:49:52;1.80;;;1.70;;
7375;SDS011;3728;42.266;24.944;2024-01-16T11:52:41;6.60;;;2.10;;
7375;SDS011;3728;42.266;24.944;2024-01-16T12:01:06;4.00;;;2.43;;
7375;SDS011;3728;42.266;24.944;2024-01-16T12:03:35;7.77;;;2.87;;
7375;SDS011;3728;42.266;24.944;2024-01-16T12:06:02;2.83;;;1.97;;
7375;SDS011;3728;42.266;24.944;2024-01-16T12:08:34;3.93;;;1.93;;
7375;SDS011;3728;42.266;24.944;2024-01-16T12:11:04;5.53;;;2.10;;
7375;SDS011;3728;42.266;24.944;2024-01-16T12:13:32;7.10;;;2.50;;
7375;SDS011;3728;42.266;24.944;2024-01-16T12:16:00;4.87;;;1.80;;
7375;SDS011;3728;42.266;24.944;2024-01-16T12:18:32;4.20;;;1.63;;
7375;SDS011;3728;42.266;24.944;2024-01-16T12:21:10;4.73;;;1.60;;
7375;SDS011;3728;42.266;24.944;2024-01-16T12:23:39;1.50;;;1.30;;
7375;SDS011;3728;42.266;24.944;2024-01-16T12:26:21;5.23;;;2.13;;
7375;SDS011;3728;42.266;24.944;2024-01-16T12:28:51;6.23;;;2.37;;
7375;SDS011;3728;42.266;24.944;2024-01-16T12:31:28;2.43;;;2.20;;
7375;SDS011;3728;42.266;24.944;2024-01-16T12:34:06;2.50;;;2.10;;
7375;SDS011;3728;42.266;24.944;2024-01-16T12:36:36;4.13;;;2.27;;
7375;SDS011;3728;42.266;24.944;2024-01-16T12:39:07;7.17;;;2.03;;
7375;SDS011;3728;42.266;24.944;2024-01-16T12:41:41;4.23;;;3.03;;
7375;SDS011;3728;42.266;24.944;2024-01-16T12:44:12;4.40;;;3.00;;
7375;SDS011;3728;42.266;24.944;2024-01-16T12:46:53;6.67;;;2.87;;
7375;SDS011;3728;42.266;24.944;2024-01-16T12:49:28;3.03;;;1.97;;
7375;SDS011;3728;42.266;24.944;2024-01-16T12:54:47;3.50;;;2.03;;
7375;SDS011;3728;42.266;24.944;2024-01-16T12:57:21;2.17;;;1.43;;
7375;SDS011;3728;42.266;24.944;2024-01-16T12:59:48;2.10;;;1.90;;
7375;SDS011;3728;42.266;24.944;2024-01-16T13:02:22;3.57;;;1.50;;
7375;SDS011;3728;42.266;24.944;2024-01-16T13:04:57;6.60;;;1.90;;
7375;SDS011;3728;42.266;24.944;2024-01-16T13:07:30;3.97;;;2.00;;
7375;SDS011;3728;42.266;24.944;2024-01-16T13:10:09;5.67;;;1.87;;
7375;SDS011;3728;42.266;24.944;2024-01-16T13:12:39;3.37;;;2.23;;
7375;SDS011;3728;42.266;24.944;2024-01-16T13:15:08;6.27;;;2.87;;
7375;SDS011;3728;42.266;24.944;2024-01-16T13:17:44;1.73;;;1.40;;
7375;SDS011;3728;42.266;24.944;2024-01-16T13:20:18;2.10;;;1.40;;
7375;SDS011;3728;42.266;24.944;2024-01-16T13:22:46;3.57;;;1.40;;
7375;SDS011;3728;42.266;24.944;2024-01-16T13:25:16;1.60;;;1.50;;
7375;SDS011;3728;42.266;24.944;2024-01-16T13:27:44;2.17;;;1.60;;
7375;SDS011;3728;42.266;24.944;2024-01-16T13:30:12;2.20;;;1.97;;
7375;SDS011;3728;42.266;24.944;2024-01-16T13:32:41;2.07;;;1.77;;
7375;SDS011;3728;42.266;24.944;2024-01-16T13:35:09;5.07;;;2.80;;
7375;SDS011;3728;42.266;24.944;2024-01-16T13:37:38;4.93;;;2.50;;
7375;SDS011;3728;42.266;24.944;2024-01-16T13:40:08;4.90;;;2.70;;
7375;SDS011;3728;42.266;24.944;2024-01-16T13:42:38;5.60;;;3.37;;
7375;SDS011;3728;42.266;24.944;2024-01-16T13:45:06;5.97;;;3.10;;
7375;SDS011;3728;42.266;24.944;2024-01-16T13:47:37;5.53;;;3.07;;
7375;SDS011;3728;42.266;24.944;2024-01-16T13:50:08;10.77;;;3.23;;
7375;SDS011;3728;42.266;24.944;2024-01-16T13:52:36;8.00;;;3.47;;
7375;SDS011;3728;42.266;24.944;2024-01-16T13:55:06;10.73;;;3.67;;
7375;SDS011;3728;42.266;24.944;2024-01-16T13:57:34;4.47;;;3.53;;
7375;SDS011;3728;42.266;24.944;2024-01-16T14:00:10;7.33;;;3.43;;
7375;SDS011;3728;42.266;24.944;2024-01-16T14:02:42;4.53;;;2.93;;
7375;SDS011;3728;42.266;24.944;2024-01-16T14:05:14;5.87;;;3.30;;
7375;SDS011;3728;42.266;24.944;2024-01-16T14:07:45;10.67;;;4.47;;
7375;SDS011;3728;42.266;24.944;2024-01-16T14:10:18;10.57;;;5.07;;
7375;SDS011;3728;42.266;24.944;2024-01-16T14:12:51;6.97;;;3.83;;
7375;SDS011;3728;42.266;24.944;2024-01-16T14:15:19;8.97;;;3.77;;
7375;SDS011;3728;42.266;24.944;2024-01-16T14:17:52;16.03;;;5.20;;
7375;SDS011;3728;42.266;24.944;2024-01-16T14:20:22;16.37;;;4.50;;
7375;SDS011;3728;42.266;24.944;2024-01-16T14:22:55;4.33;;;2.73;;
7375;SDS011;3728;42.266;24.944;2024-01-16T14:25:25;6.00;;;2.90;;
7375;SDS011;3728;42.266;24.944;2024-01-16T14:27:56;3.27;;;2.20;;
7375;SDS011;3728;42.266;24.944;2024-01-16T14:30:34;6.87;;;2.77;;
7375;SDS011;3728;42.266;24.944;2024-01-16T14:33:03;8.13;;;4.30;;
7375;SDS011;3728;42.266;24.944;2024-01-16T14:35:33;13.87;;;8.03;;
7375;SDS011;3728;42.266;24.944;2024-01-16T14:38:21;8.40;;;3.50;;
7375;SDS011;3728;42.266;24.944;2024-01-16T14:40:49;9.37;;;2.90;;
7375;SDS011;3728;42.266;24.944;2024-01-16T14:43:20;3.73;;;2.37;;
7375;SDS011;3728;42.266;24.944;2024-01-16T14:45:48;3.87;;;2.60;;
7375;SDS011;3728;42.266;24.944;2024-01-16T14:48:17;12.00;;;5.80;;
7375;SDS011;3728;42.266;24.944;2024-01-16T14:50:45;5.30;;;3.67;;
7375;SDS011;3728;42.266;24.944;2024-01-16T14:53:16;9.37;;;5.90;;
7375;SDS011;3728;42.266;24.944;2024-01-16T14:55:45;7.10;;;4.00;;
7375;SDS011;3728;42.266;24.944;2024-01-16T14:58:13;22.07;;;9.83;;
7375;SDS011;3728;42.266;24.944;2024-01-16T15:00:41;19.17;;;9.37;;
7375;SDS011;3728;42.266;24.944;2024-01-16T15:03:12;16.63;;;9.37;;
7375;SDS011;3728;42.266;24.944;2024-01-16T15:05:40;10.70;;;6.57;;
7375;SDS011;3728;42.266;24.944;2024-01-16T15:08:08;8.40;;;5.90;;
7375;SDS011;3728;42.266;24.944;2024-01-16T15:10:36;9.27;;;5.57;;
7375;SDS011;3728;42.266;24.944;2024-01-16T15:13:04;18.90;;;8.97;;